Time;durP1;ratioP1;P1;durP2;ratioP2;P2;SDS_P1;SDS_P2;PMS_P1;PMS_P2;Temp;Humidity;BMP_temperature;BMP_pressure;BME280_temperature;BME280_humidity;BME280_pressure;Samples;Min_cycle;Max_cycle;Signal;HPM_P1;HPM_P2
2022/11/10 00:01:07;;;;;;;38.97;18.88;;;;;;;9.85;100.00;97054.81;5041196;28;20056;-65
2022/11/10 00:03:34;;;;;;;30.33;16.60;;;;;;;9.76;100.00;97044.06;5020942;28;20041;-64
2022/11/10 00:06:04;;;;;;;26.02;15.73;;;;;;;9.72;100.00;97045.09;5038852;28;20033;-64
2022/11/10 00:08:29;;;;;;;27.20;15.88;;;;;;;9.70;100.00;97050.91;5037592;28;20090;-64
2022/11/10 00:10:58;;;;;;;23.55;14.75;;;;;;;9.71;100.00;97046.25;5037778;28;20045;-64
2022/11/10 00:13:30;;;;;;;19.52;14.05;;;;;;;9.77;100.00;97058.50;5032935;28;20887;-66
2022/11/10 00:18:42;;;;;;;21.20;15.05;;;;;;;9.80;100.00;97060.56;5036547;28;20425;-66
2022/11/10 00:21:10;;;;;;;27.02;16.17;;;;;;;9.81;100.00;97064.06;5033657;28;20094;-67
2022/11/10 00:23:35;;;;;;;26.52;15.95;;;;;;;9.73;100.00;97063.09;5036439;28;20112;-66
2022/11/10 00:26:01;;;;;;;24.90;15.02;;;;;;;9.65;100.00;97064.88;5021140;28;20048;-66
2022/11/10 00:28:29;;;;;;;22.60;15.88;;;;;;;9.59;100.00;97079.94;5034759;28;21175;-66
2022/11/10 00:30:55;;;;;;;21.55;14.52;;;;;;;9.57;100.00;97074.81;5041915;28;20041;-67
2022/11/10 00:33:20;;;;;;;20.77;15.68;;;;;;;9.48;100.00;97076.13;5037410;28;20508;-66
2022/11/10 00:35:45;;;;;;;23.67;16.88;;;;;;;9.47;100.00;97080.00;5040976;28;20040;-68
2022/11/10 00:38:11;;;;;;;23.60;15.20;;;;;;;9.48;100.00;97082.38;5036573;28;20048;-67
2022/11/10 00:40:36;;;;;;;19.63;15.48;;;;;;;9.38;100.00;97083.69;5042615;28;20049;-67
2022/11/10 00:43:02;;;;;;;23.73;17.25;;;;;;;9.36;100.00;97091.47;5022660;28;20064;-68
2022/11/10 00:45:27;;;;;;;24.23;16.50;;;;;;;9.34;100.00;97096.47;5037859;28;20131;-68
2022/11/10 00:47:52;;;;;;;23.30;15.98;;;;;;;9.44;100.00;97095.19;5043848;28;20048;-68
2022/11/10 00:50:18;;;;;;;22.13;14.93;;;;;;;9.56;100.00;97095.13;5036701;28;20120;-67
2022/11/10 00:52:43;;;;;;;22.17;15.65;;;;;;;9.63;100.00;97110.13;5041174;28;20103;-67
2022/11/10 00:55:09;;;;;;;22.45;15.35;;;;;;;9.70;100.00;97107.56;5046386;28;20048;-68
2022/11/10 00:57:34;;;;;;;22.05;14.57;;;;;;;9.74;100.00;97101.06;5037619;28;20051;-67
2022/11/10 00:59:59;;;;;;;22.70;14.85;;;;;;;9.75;100.00;97104.56;5044669;28;20024;-67
2022/11/10 01:02:26;;;;;;;19.27;14.60;;;;;;;9.73;100.00;97110.41;5043500;28;20048;-65
2022/11/10 01:04:51;;;;;;;21.10;14.55;;;;;;;9.75;100.00;97108.09;5043078;28;20496;-68
2022/11/10 01:07:17;;;;;;;26.25;15.60;;;;;;;9.79;100.00;97119.13;5035067;28;20045;-67
2022/11/10 01:09:42;;;;;;;21.08;14.35;;;;;;;9.75;100.00;97116.31;5023938;28;20473;-68
2022/11/10 01:12:08;;;;;;;22.38;14.20;;;;;;;9.78;100.00;97117.56;5017550;28;20552;-65
2022/11/10 01:14:33;;;;;;;24.85;16.45;;;;;;;9.83;100.00;97125.50;5041705;28;20147;-65
2022/11/10 01:16:58;;;;;;;25.52;16.77;;;;;;;9.82;100.00;97126.66;5040022;28;20048;-67
2022/11/10 01:19:24;;;;;;;27.67;18.08;;;;;;;9.84;100.00;97126.31;5037700;28;20040;-67
2022/11/10 01:21:50;;;;;;;27.33;16.55;;;;;;;9.87;100.00;97120.91;5040563;28;20424;-67
2022/11/10 01:24:20;;;;;;;23.08;15.30;;;;;;;9.90;100.00;97122.97;5018886;28;20048;-68
2022/11/10 01:26:47;;;;;;;23.10;15.65;;;;;;;9.98;100.00;97121.19;5022097;28;20040;-66
2022/11/10 01:29:13;;;;;;;22.98;16.15;;;;;;;10.09;100.00;97119.50;5035997;28;20126;-66
2022/11/10 01:31:38;;;;;;;23.23;15.38;;;;;;;10.12;100.00;97132.50;5040631;28;20087;-67
2022/11/10 01:34:04;;;;;;;23.70;15.50;;;;;;;10.24;100.00;97128.88;5037753;28;20640;-67
2022/11/10 01:36:29;;;;;;;22.13;16.40;;;;;;;10.20;100.00;97132.69;5020781;28;20040;-66
2022/11/10 01:38:55;;;;;;;22.85;16.50;;;;;;;10.16;100.00;97132.59;5041371;28;20037;-66
2022/11/10 01:41:20;;;;;;;24.67;16.50;;;;;;;10.10;100.00;97139.47;5036208;28;20033;-69
2022/11/10 01:43:45;;;;;;;20.20;14.88;;;;;;;10.10;100.00;97143.00;5041083;28;20077;-65
2022/11/10 01:46:12;;;;;;;21.48;16.33;;;;;;;10.06;100.00;97138.59;5031720;28;20135;-67
2022/11/10 01:48:49;;;;;;;22.90;15.57;;;;;;;10.07;100.00;97126.50;5040229;28;20237;-66
2022/11/10 01:51:21;;;;;;;24.83;17.45;;;;;;;9.94;100.00;97143.00;5035066;28;20045;-67
2022/11/10 01:53:55;;;;;;;27.35;16.83;;;;;;;9.94;100.00;97147.69;5040566;28;20044;-65
2022/11/10 01:56:22;;;;;;;25.42;16.98;;;;;;;10.09;100.00;97154.31;5035849;28;20029;-66
2022/11/10 01:58:52;;;;;;;21.08;14.65;;;;;;;10.13;100.00;97161.44;5056336;28;20048;-66
2022/11/10 02:01:18;;;;;;;15.27;10.05;;;;;;;10.05;100.00;97156.94;5032116;28;20040;-66
2022/11/10 02:04:01;;;;;;;10.07;6.57;;;;;;;9.94;100.00;97158.63;5039640;28;20041;-66
2022/11/10 02:06:30;;;;;;;7.20;4.97;;;;;;;9.89;100.00;97156.94;5033128;28;20048;-67
2022/11/10 02:08:58;;;;;;;8.63;5.00;;;;;;;9.94;100.00;97162.16;5040069;28;20040;-66
2022/11/10 02:11:24;;;;;;;6.70;4.50;;;;;;;9.81;100.00;97160.59;5034671;28;20114;-67
2022/11/10 02:13:51;;;;;;;7.00;4.40;;;;;;;9.75;100.00;97165.53;5040910;28;20098;-67
2022/11/10 02:16:18;;;;;;;7.53;5.03;;;;;;;9.76;100.00;97158.94;5036428;28;20063;-67
2022/11/10 02:18:43;;;;;;;8.48;4.93;;;;;;;9.75;100.00;97162.03;5043748;28;20052;-66
2022/11/10 02:21:09;;;;;;;8.80;5.32;;;;;;;9.76;100.00;97161.66;5036539;28;20045;-68
2022/11/10 02:23:35;;;;;;;7.63;5.43;;;;;;;9.73;100.00;97175.25;5042760;28;20136;-67
2022/11/10 02:26:03;;;;;;;11.05;5.97;;;;;;;9.73;100.00;97173.31;5041442;28;20131;-67
2022/11/10 02:28:33;;;;;;;10.13;5.60;;;;;;;9.66;100.00;97170.38;5020041;28;20051;-67
2022/11/10 02:30:58;;;;;;;9.60;4.78;;;;;;;9.54;100.00;97175.91;5039740;28;20516;-67
2022/11/10 02:33:23;;;;;;;9.00;4.72;;;;;;;9.49;100.00;97185.16;5036942;28;20278;-66
2022/11/10 02:35:49;;;;;;;8.95;4.80;;;;;;;9.50;100.00;97175.00;5041438;28;20083;-66
2022/11/10 02:38:14;;;;;;;5.80;3.50;;;;;;;9.54;100.00;97175.91;5036835;28;20132;-66
2022/11/10 02:40:40;;;;;;;7.53;3.40;;;;;;;9.55;100.00;97177.50;5043523;28;20045;-67
2022/11/10 02:43:09;;;;;;;6.35;3.33;;;;;;;9.54;100.00;97178.63;5037307;28;20049;-67
2022/11/10 02:45:40;;;;;;;6.70;3.25;;;;;;;9.53;100.00;97190.72;5043318;28;20617;-66
2022/11/10 02:48:06;;;;;;;5.32;3.15;;;;;;;9.50;100.00;97194.16;5036583;28;20406;-66
2022/11/10 02:50:32;;;;;;;5.60;3.33;;;;;;;9.60;100.00;97195.56;5041806;28;20048;-66
2022/11/10 02:52:57;;;;;;;4.88;3.40;;;;;;;9.51;100.00;97201.22;5042378;28;20062;-66
2022/11/10 02:55:23;;;;;;;5.80;3.22;;;;;;;9.51;100.00;97202.00;5036451;28;20173;-66
2022/11/10 02:57:48;;;;;;;5.30;2.55;;;;;;;9.48;100.00;97210.09;5029717;28;20044;-66
2022/11/10 03:00:13;;;;;;;20.60;7.15;;;;;;;9.53;100.00;97216.13;5003199;28;20044;-67
2022/11/10 03:02:39;;;;;;;5.15;2.80;;;;;;;9.56;100.00;97215.44;5038955;28;20099;-66
2022/11/10 03:05:04;;;;;;;4.00;3.00;;;;;;;9.53;100.00;97218.06;5037985;28;20086;-67
2022/11/10 03:07:30;;;;;;;10.18;3.45;;;;;;;9.49;100.00;97222.63;5021812;28;20041;-65
2022/11/10 03:09:55;;;;;;;8.60;4.05;;;;;;;9.56;100.00;97218.16;5041407;28;20673;-67
2022/11/10 03:12:20;;;;;;;15.77;5.75;;;;;;;9.50;100.00;97229.69;5018420;28;20057;-66
2022/11/10 03:14:46;;;;;;;25.58;8.07;;;;;;;9.44;100.00;97233.81;5022487;28;20382;-65
2022/11/10 03:17:11;;;;;;;7.82;3.63;;;;;;;9.42;100.00;97231.44;5035603;28;20060;-65
2022/11/10 03:19:36;;;;;;;7.93;4.47;;;;;;;9.26;100.00;97236.81;5041142;28;20049;-65
2022/11/10 03:22:02;;;;;;;6.53;3.90;;;;;;;9.10;100.00;97241.41;5040548;28;20044;-65
2022/11/10 03:24:27;;;;;;;8.68;3.80;;;;;;;8.97;100.00;97251.53;5035926;28;20048;-66
2022/11/10 03:26:53;;;;;;;9.73;4.38;;;;;;;8.87;100.00;97241.06;5048720;28;20063;-67
2022/11/10 03:29:18;;;;;;;7.10;3.90;;;;;;;8.84;100.00;97256.22;5042972;28;20051;-66
2022/11/10 03:31:43;;;;;;;7.40;4.32;;;;;;;8.82;100.00;97254.94;5049325;28;20664;-66
2022/11/10 03:34:09;;;;;;;10.13;4.20;;;;;;;8.87;100.00;97262.94;5038115;28;21682;-66
2022/11/10 03:36:34;;;;;;;5.13;3.63;;;;;;;8.86;100.00;97266.78;5041093;28;20049;-66
2022/11/10 03:39:00;;;;;;;5.93;3.53;;;;;;;8.79;100.00;97278.28;5040468;28;20052;-66
2022/11/10 03:41:25;;;;;;;5.15;3.50;;;;;;;8.78;100.00;97282.94;5035725;28;20040;-65
2022/11/10 03:43:51;;;;;;;6.00;3.58;;;;;;;8.82;100.00;97290.47;5041099;28;20045;-66
2022/11/10 03:46:17;;;;;;;8.02;3.90;;;;;;;8.80;100.00;97288.88;5035537;28;20049;-65
2022/11/10 03:48:42;;;;;;;5.43;3.58;;;;;;;8.70;100.00;97292.06;5039939;28;20136;-66
2022/11/10 03:51:08;;;;;;;10.63;4.53;;;;;;;8.53;100.00;97292.25;5035439;28;20047;-65
2022/11/10 03:53:33;;;;;;;6.60;4.88;;;;;;;8.40;100.00;97294.13;5041564;28;20385;-65
2022/11/10 03:56:00;;;;;;;11.77;5.75;;;;;;;8.30;100.00;97298.09;5039094;28;20052;-65
2022/11/10 03:58:26;;;;;;;11.32;6.93;;;;;;;8.21;100.00;97308.28;5036989;28;20508;-65
2022/11/10 04:00:54;;;;;;;10.57;6.57;;;;;;;8.16;100.00;97313.97;5042053;28;20118;-67
2022/11/10 04:03:20;;;;;;;11.45;7.30;;;;;;;8.14;100.00;97308.03;5039170;28;20469;-66
2022/11/10 04:15:40;;;;;;;11.30;6.13;;;;;;;8.41;100.00;97328.50;5044421;28;20039;-66
2022/11/10 04:16:48;;;;;;;11.13;6.60;;;;;;;8.62;100.00;97331.16;5031534;28;20764;-66
2022/11/10 04:19:14;;;;;;;9.40;6.18;;;;;;;8.59;100.00;97334.59;5013492;28;20460;-67
2022/11/10 04:21:40;;;;;;;9.48;6.72;;;;;;;8.52;100.00;97342.53;5051477;28;20497;-66
2022/11/10 04:24:07;;;;;;;10.75;6.28;;;;;;;8.44;100.00;97335.22;5054425;28;20036;-66
2022/11/10 04:26:36;;;;;;;10.50;7.00;;;;;;;8.41;100.00;97333.94;5038892;28;20052;-67
2022/11/10 04:29:04;;;;;;;11.35;6.88;;;;;;;8.34;100.00;97336.44;5040316;28;20490;-67
2022/11/10 04:31:32;;;;;;;8.75;6.93;;;;;;;8.23;100.00;97336.06;5038205;28;20053;-66
2022/11/10 04:33:58;;;;;;;12.57;7.38;;;;;;;8.13;100.00;97339.97;5039192;28;20045;-65
2022/11/10 04:36:26;;;;;;;12.15;7.82;;;;;;;7.95;100.00;97344.00;5035261;28;20118;-68
2022/11/10 04:38:53;;;;;;;156.23;12.02;;;;;;;7.78;100.00;97339.47;5022177;28;20041;-67
2022/11/10 04:41:18;;;;;;;20.13;7.32;;;;;;;7.76;100.00;97342.53;5035479;28;20044;-66
2022/11/10 04:43:44;;;;;;;12.85;6.93;;;;;;;7.81;100.00;97345.06;5039706;28;20043;-65
2022/11/10 04:46:23;;;;;;;11.73;7.18;;;;;;;7.88;100.00;97344.50;5034002;28;20440;-67
2022/11/10 04:48:49;;;;;;;;;;;;;;;7.87;100.00;97348.38;5039560;28;20522;-66
2022/11/10 04:51:16;;;;;;;13.68;8.10;;;;;;;7.77;100.00;97355.03;5035948;28;20003;-67
2022/11/10 04:53:41;;;;;;;9.10;6.50;;;;;;;7.74;100.00;97360.34;5021883;28;20132;-66
2022/11/10 04:56:12;;;;;;;9.48;6.75;;;;;;;7.82;100.00;97365.75;5018446;28;20139;-67
2022/11/10 04:58:38;;;;;;;24.90;7.90;;;;;;;7.42;100.00;97362.66;5013165;28;20096;-67
2022/11/10 05:01:03;;;;;;;13.13;8.18;;;;;;;7.35;100.00;97370.53;5021286;28;20401;-68
2022/11/10 05:03:28;;;;;;;12.82;8.07;;;;;;;7.25;100.00;97371.69;5035345;28;20040;-67
2022/11/10 05:05:54;;;;;;;14.63;8.10;;;;;;;7.25;100.00;97377.16;5039227;28;20036;-66
2022/11/10 05:08:19;;;;;;;15.00;8.63;;;;;;;7.29;100.00;97372.63;5034278;28;20059;-67
2022/11/10 05:10:45;;;;;;;11.82;7.80;;;;;;;7.40;100.00;97373.88;5040491;28;20573;-67
2022/11/10 05:13:10;;;;;;;13.85;7.72;;;;;;;7.51;100.00;97378.94;5039231;28;20045;-67
2022/11/10 05:15:38;;;;;;;16.38;10.32;;;;;;;7.52;100.00;97386.78;5043518;28;20405;-68
2022/11/10 05:18:03;;;;;;;15.10;9.07;;;;;;;7.51;100.00;97384.38;5041282;28;20041;-68
2022/11/10 05:20:28;;;;;;;14.43;8.30;;;;;;;7.44;100.00;97387.66;5043359;28;20041;-67
2022/11/10 05:25:40;;;;;;;15.35;9.70;;;;;;;7.30;100.00;97403.44;5051018;28;20077;-67
2022/11/10 05:28:08;;;;;;;13.77;8.82;;;;;;;7.21;100.00;97395.28;5045329;28;20068;-66
2022/11/10 05:30:34;;;;;;;19.88;9.25;;;;;;;7.16;100.00;97407.16;5041624;28;20049;-67
2022/11/10 05:33:00;;;;;;;13.50;7.93;;;;;;;7.12;100.00;97413.59;5042968;28;20067;-67
2022/11/10 05:35:25;;;;;;;15.50;9.23;;;;;;;7.14;100.00;97420.31;5036849;28;20045;-67
2022/11/10 05:37:51;;;;;;;13.93;8.43;;;;;;;7.15;100.00;97423.81;5043409;28;20041;-66
2022/11/10 05:40:16;;;;;;;17.13;9.65;;;;;;;7.19;100.00;97430.25;5036377;28;20064;-66
2022/11/10 05:42:46;;;;;;;15.85;8.93;;;;;;;7.24;100.00;97443.69;5042953;28;20051;-66
2022/11/10 05:45:13;;;;;;;15.32;8.90;;;;;;;7.22;100.00;97444.00;5033671;28;20048;-67
2022/11/10 05:47:38;;;;;;;14.32;9.13;;;;;;;7.20;100.00;97440.81;5037409;28;20037;-65
2022/11/10 05:50:05;;;;;;;16.58;9.52;;;;;;;7.19;100.00;97446.59;5034041;28;20102;-68
2022/11/10 05:52:31;;;;;;;14.57;8.48;;;;;;;7.11;100.00;97453.63;5042643;28;20055;-66
2022/11/10 05:54:56;;;;;;;12.82;8.85;;;;;;;7.05;100.00;97446.78;5025652;28;20041;-66
2022/11/10 05:57:21;;;;;;;17.70;9.90;;;;;;;7.03;100.00;97446.31;5038207;28;20750;-69
2022/11/10 05:59:47;;;;;;;19.02;11.27;;;;;;;7.08;100.00;97448.84;5044399;28;20045;-67
2022/11/10 06:02:12;;;;;;;18.23;11.95;;;;;;;7.01;100.00;97449.34;5039155;28;20155;-70
2022/11/10 06:04:37;;;;;;;16.98;10.30;;;;;;;6.88;100.00;97447.63;5034842;28;20378;-67
2022/11/10 06:07:03;;;;;;;17.98;9.40;;;;;;;6.80;100.00;97446.50;5038116;28;20133;-66
2022/11/10 06:09:28;;;;;;;314.77;17.40;;;;;;;6.55;100.00;97448.16;5036739;28;20048;-64
2022/11/10 06:11:54;;;;;;;124.38;9.50;;;;;;;6.39;100.00;97452.47;5042856;28;20037;-64
2022/11/10 06:14:19;;;;;;;531.38;24.10;;;;;;;6.39;100.00;97456.03;5036741;28;20409;-67
2022/11/10 06:16:44;;;;;;;74.30;13.90;;;;;;;6.44;100.00;97464.00;5041842;28;20187;-66
2022/11/10 06:19:10;;;;;;;16.13;9.55;;;;;;;6.46;100.00;97471.84;5018742;28;20132;-67
2022/11/10 06:21:35;;;;;;;11.98;7.93;;;;;;;6.59;100.00;97489.13;5041747;28;20048;-65
2022/11/10 06:24:01;;;;;;;13.25;7.68;;;;;;;6.76;100.00;97499.22;5039969;28;20513;-67
2022/11/10 06:26:26;;;;;;;17.13;8.05;;;;;;;6.91;100.00;97498.72;5036728;28;20114;-65
2022/11/10 06:28:52;;;;;;;13.13;8.02;;;;;;;6.98;100.00;97504.47;5041148;28;20052;-68
2022/11/10 06:31:17;;;;;;;13.18;7.80;;;;;;;6.98;100.00;97515.34;5036777;28;20044;-67
2022/11/10 06:33:42;;;;;;;10.68;7.22;;;;;;;7.07;100.00;97524.31;5042204;28;20482;-66
2022/11/10 06:36:08;;;;;;;11.13;7.07;;;;;;;7.15;100.00;97527.34;5018593;28;20045;-66
2022/11/10 06:38:34;;;;;;;13.07;8.68;;;;;;;7.22;100.00;97527.66;5041314;28;20489;-66
2022/11/10 06:41:00;;;;;;;13.15;8.23;;;;;;;7.30;100.00;97528.78;5043308;28;20479;-66
2022/11/10 06:43:27;;;;;;;12.93;7.03;;;;;;;7.37;100.00;97527.13;5035657;28;20480;-67
2022/11/10 06:45:52;;;;;;;14.40;7.70;;;;;;;7.39;100.00;97535.00;5038339;28;20045;-65
2022/11/10 06:48:18;;;;;;;13.68;7.88;;;;;;;7.39;100.00;97537.72;5034821;28;20517;-65
2022/11/10 06:50:43;;;;;;;14.30;7.72;;;;;;;7.25;100.00;97538.69;5041664;28;20402;-66
2022/11/10 06:53:09;;;;;;;14.75;5.80;;;;;;;6.41;100.00;97556.38;5034967;28;20045;-64
2022/11/10 06:55:35;;;;;;;8.98;5.35;;;;;;;6.67;100.00;97562.63;5023195;28;20527;-64
2022/11/10 06:58:01;;;;;;;8.73;6.15;;;;;;;7.00;100.00;97556.69;5054201;28;20052;-66
2022/11/10 07:00:27;;;;;;;24.13;6.70;;;;;;;6.78;100.00;97546.78;5036277;28;20037;-66
2022/11/10 07:02:59;;;;;;;50.78;8.07;;;;;;;6.42;100.00;97552.53;5041306;28;20417;-66
2022/11/10 07:05:25;;;;;;;11.70;6.93;;;;;;;6.70;100.00;97548.38;5035620;28;20056;-66
2022/11/10 07:07:50;;;;;;;15.75;8.35;;;;;;;7.06;100.00;97566.31;5039342;28;20112;-65
2022/11/10 07:10:16;;;;;;;16.65;8.88;;;;;;;7.32;100.00;97562.75;5033954;28;20412;-67
2022/11/10 07:12:41;;;;;;;18.10;10.98;;;;;;;7.39;100.00;97568.50;5040291;28;20041;-66
2022/11/10 07:15:07;;;;;;;18.02;9.82;;;;;;;7.48;100.00;97573.94;5035893;28;20385;-65
2022/11/10 07:17:39;;;;;;;18.67;10.02;;;;;;;7.50;100.00;97568.16;5040184;28;20515;-66
2022/11/10 07:20:05;;;;;;;28.17;10.60;;;;;;;7.49;100.00;97577.44;5036287;28;20047;-65
2022/11/10 07:22:31;;;;;;;21.42;9.65;;;;;;;7.31;100.00;97579.41;5033422;28;20532;-68
2022/11/10 07:24:57;;;;;;;18.38;9.65;;;;;;;7.26;100.00;97594.03;5040922;28;20040;-68
2022/11/10 07:27:22;;;;;;;19.58;11.02;;;;;;;7.41;100.00;97598.94;5033474;28;20045;-66
2022/11/10 07:29:47;;;;;;;18.35;12.05;;;;;;;7.71;100.00;97590.06;5040285;28;20382;-65
2022/11/10 07:32:13;;;;;;;16.42;10.60;;;;;;;7.91;100.00;97583.09;5034944;28;20144;-64
2022/11/10 07:34:39;;;;;;;13.77;9.90;;;;;;;7.90;100.00;97582.28;5041011;28;20378;-64
2022/11/10 07:37:05;;;;;;;14.25;8.23;;;;;;;8.01;100.00;97594.44;5036124;28;20041;-66
2022/11/10 07:39:30;;;;;;;12.30;7.80;;;;;;;8.19;100.00;97597.06;5036042;28;20056;-64
2022/11/10 07:41:56;;;;;;;16.10;10.75;;;;;;;8.39;100.00;97611.88;5051154;28;20117;-66
2022/11/10 07:44:22;;;;;;;12.25;7.65;;;;;;;8.62;100.00;97620.63;5039550;28;20832;-65
2022/11/10 07:46:48;;;;;;;12.15;7.15;;;;;;;8.99;100.00;97631.78;5040557;28;20045;-63
2022/11/10 07:49:13;;;;;;;10.82;6.45;;;;;;;9.22;100.00;97634.16;5036374;28;20071;-65
2022/11/10 07:51:41;;;;;;;11.13;8.30;;;;;;;9.07;100.00;97638.31;5024739;28;20056;-65
2022/11/10 07:54:07;;;;;;;11.43;7.55;;;;;;;9.30;100.00;97639.56;5036596;28;20045;-66
2022/11/10 07:56:32;;;;;;;9.50;6.75;;;;;;;10.56;100.00;97643.03;5039662;28;20045;-64
2022/11/10 07:58:58;;;;;;;7.05;5.28;;;;;;;11.62;100.00;97646.53;5042046;28;20049;-64
2022/11/10 08:01:23;;;;;;;7.47;5.25;;;;;;;12.47;100.00;97651.84;5038040;28;20056;-65
2022/11/10 08:03:48;;;;;;;10.68;5.60;;;;;;;13.14;100.00;97644.38;5024444;28;20044;-65
2022/11/10 08:06:14;;;;;;;7.63;4.82;;;;;;;13.60;100.00;97651.22;5036473;28;20053;-66
2022/11/10 08:08:39;;;;;;;7.72;4.50;;;;;;;13.87;100.00;97652.91;5041565;28;20389;-65
2022/11/10 08:11:05;;;;;;;7.15;4.25;;;;;;;13.67;100.00;97663.16;5035197;28;20372;-68
2022/11/10 08:13:30;;;;;;;5.90;4.32;;;;;;;13.59;100.00;97661.41;5041728;28;20144;-65
2022/11/10 08:15:58;;;;;;;7.78;4.25;;;;;;;13.78;100.00;97657.84;5041866;28;20056;-66
2022/11/10 08:18:24;;;;;;;14.95;9.43;;;;;;;13.13;100.00;97670.25;5035351;28;20072;-66
2022/11/10 08:20:51;;;;;;;15.02;9.60;;;;;;;12.56;100.00;97655.22;5041060;28;20060;-67
2022/11/10 08:23:17;;;;;;;16.08;7.45;;;;;;;11.60;100.00;97660.59;5045718;28;20032;-67
2022/11/10 08:25:43;;;;;;;13.07;7.50;;;;;;;11.97;100.00;97670.59;5048532;28;20052;-67
2022/11/10 08:28:11;;;;;;;13.50;8.52;;;;;;;12.86;100.00;97663.78;5043755;28;20076;-67
2022/11/10 08:30:38;;;;;;;11.80;7.32;;;;;;;13.75;100.00;97675.09;5044128;28;20147;-68
2022/11/10 08:33:06;;;;;;;38.95;7.72;;;;;;;13.01;100.00;97676.66;5019308;28;20041;-65
2022/11/10 08:35:36;;;;;;;16.27;6.95;;;;;;;13.11;100.00;97680.03;5025872;28;20041;-67
2022/11/10 08:38:10;;;;;;;14.50;8.10;;;;;;;13.36;100.00;97686.09;5039085;28;20037;-67
2022/11/10 08:40:36;;;;;;;19.75;7.35;;;;;;;12.99;100.00;97690.00;5025036;28;20522;-67
2022/11/10 08:43:03;;;;;;;11.95;7.25;;;;;;;13.31;100.00;97689.16;5045184;28;20057;-67
2022/11/10 08:45:28;;;;;;;9.98;6.55;;;;;;;13.31;100.00;97702.91;5039650;28;20048;-67
2022/11/10 08:48:02;;;;;;;11.43;7.32;;;;;;;13.25;100.00;97710.59;5044262;28;20056;-68
2022/11/10 08:50:28;;;;;;;22.98;14.70;;;;;;;12.68;100.00;97712.03;5042024;28;20033;-67
2022/11/10 08:52:54;;;;;;;13.10;8.90;;;;;;;12.17;100.00;97702.53;5043199;28;20052;-65
2022/11/10 08:55:20;;;;;;;10.05;7.68;;;;;;;12.92;100.00;97705.53;5038289;28;20037;-65
2022/11/10 08:57:47;;;;;;;11.65;7.93;;;;;;;13.50;100.00;97705.66;5050558;28;20064;-66
2022/11/10 09:00:14;;;;;;;12.20;7.93;;;;;;;13.49;100.00;97698.56;5039494;28;20091;-66
2022/11/10 09:02:39;;;;;;;11.80;8.10;;;;;;;13.17;100.00;97700.59;5044187;28;20049;-66
2022/11/10 09:05:05;;;;;;;11.85;8.07;;;;;;;13.12;100.00;97700.88;5040732;28;20055;-66
2022/11/10 09:07:33;;;;;;;9.70;7.05;;;;;;;13.56;100.00;97701.47;5043914;28;20033;-66
2022/11/10 09:09:58;;;;;;;12.35;7.63;;;;;;;14.13;100.00;97714.75;5045481;28;20068;-66
2022/11/10 09:12:24;;;;;;;10.43;7.05;;;;;;;14.39;100.00;97719.56;5038634;28;20111;-66
2022/11/10 09:14:49;;;;;;;11.45;7.35;;;;;;;14.59;100.00;97719.53;5044586;28;20041;-68
2022/11/10 09:17:14;;;;;;;11.75;7.57;;;;;;;14.71;100.00;97722.91;5037910;28;20551;-67
2022/11/10 09:19:40;;;;;;;10.90;7.47;;;;;;;14.28;100.00;97732.34;5045464;28;20059;-65
2022/11/10 09:22:06;;;;;;;9.45;7.07;;;;;;;14.40;100.00;97740.44;5043784;28;20415;-67
2022/11/10 09:24:31;;;;;;;11.70;7.40;;;;;;;14.47;100.00;97739.78;5044000;28;20056;-67
2022/11/10 09:26:57;;;;;;;13.32;8.18;;;;;;;14.47;100.00;97745.28;5042759;28;20049;-66
2022/11/10 09:29:24;;;;;;;15.20;7.50;;;;;;;14.80;100.00;97741.13;5021921;28;20107;-64
2022/11/10 09:31:49;;;;;;;13.70;7.70;;;;;;;15.08;100.00;97740.78;5044643;28;20036;-66
2022/11/10 09:34:15;;;;;;;11.90;7.75;;;;;;;14.43;100.00;97749.94;5039352;28;20390;-67
2022/11/10 09:36:40;;;;;;;11.57;7.70;;;;;;;14.57;100.00;97755.72;5041663;28;20135;-65
2022/11/10 09:39:06;;;;;;;16.33;8.18;;;;;;;14.63;100.00;97758.97;5040760;28;20060;-67
2022/11/10 09:41:32;;;;;;;11.52;7.53;;;;;;;14.27;100.00;97761.06;5044527;28;20102;-68
2022/11/10 09:44:25;;;;;;;12.13;7.15;;;;;;;14.45;100.00;97753.13;5044085;28;20489;-67
2022/11/10 09:46:57;;;;;;;13.75;7.68;;;;;;;13.98;100.00;97762.47;5041848;28;20047;-67
2022/11/10 09:49:37;;;;;;;11.18;7.72;;;;;;;13.44;100.00;97753.88;5041064;28;20525;-65
2022/11/10 09:52:03;;;;;;;;;;;;;;;13.52;100.00;97755.66;5042740;28;20124;-66
2022/11/10 09:54:53;;;;;;;12.57;7.35;;;;;;;13.57;100.00;97757.31;5040531;28;19993;-66
2022/11/10 09:57:23;;;;;;;33.83;12.75;;;;;;;13.87;100.00;97754.78;5041556;28;20098;-70
2022/11/10 09:59:48;;;;;;;;;;;;;;;14.21;100.00;97757.03;5031663;28;20041;-67
2022/11/10 10:02:38;;;;;;;13.50;7.68;;;;;;;14.13;100.00;97751.38;5022251;28;20279;-67
2022/11/10 10:05:23;;;;;;;;;;;;;;;14.46;100.00;97755.53;5035325;28;20076;-67
2022/11/10 10:08:12;;;;;;;35.58;8.45;;;;;;;15.00;100.00;97759.22;5042691;28;19913;-67
2022/11/10 10:10:44;;;;;;;13.93;7.40;;;;;;;14.90;100.00;97766.13;5043694;28;20147;-66
2022/11/10 10:13:44;;;;;;;21.65;8.70;;;;;;;14.57;100.00;97775.00;5037603;28;20056;-66
2022/11/10 10:16:20;;;;;;;21.60;14.82;;;;;;;14.28;100.00;97773.69;5034863;28;20041;-66
2022/11/10 10:19:32;;;;;;;26.60;13.65;;;;;;;14.26;100.00;97776.81;5043931;28;20041;-67
2022/11/10 10:22:15;;;;;;;38.35;22.83;;;;;;;13.74;100.00;97776.16;5044585;28;20052;-67
2022/11/10 10:24:41;;;;;;;22.75;9.82;;;;;;;13.52;100.00;97771.34;5042898;28;20052;-67
2022/11/10 10:27:20;;;;;;;13.18;8.20;;;;;;;13.68;100.00;97780.34;5037435;28;20036;-67
2022/11/10 10:29:48;;;;;;;13.33;7.50;;;;;;;13.25;100.00;97779.38;5042992;28;20045;-67
2022/11/10 10:32:15;;;;;;;13.73;7.47;;;;;;;13.51;100.00;97778.03;5036948;28;20287;-69
2022/11/10 10:34:43;;;;;;;13.10;7.97;;;;;;;13.72;100.00;97770.22;5041966;28;20036;-68
2022/11/10 10:37:33;;;;;;;14.38;7.20;;;;;;;14.23;100.00;97779.50;5035384;28;20072;-67
2022/11/10 10:39:58;;;;;;;12.95;7.35;;;;;;;14.93;100.00;97774.81;5037118;28;20037;-67
2022/11/10 10:42:35;;;;;;;25.60;7.75;;;;;;;14.62;100.00;97783.00;5035861;28;20636;-66
2022/11/10 10:45:19;;;;;;;9.93;6.57;;;;;;;14.69;100.00;97779.56;5039343;28;20037;-67
2022/11/10 10:47:48;;;;;;;12.35;6.95;;;;;;;14.23;100.00;97788.56;5038505;28;20037;-66
2022/11/10 10:50:47;;;;;;;13.18;6.93;;;;;;;14.38;100.00;97786.06;5034559;28;20033;-66
2022/11/10 10:53:14;;;;;;;;;;;;;;;15.11;100.00;97786.97;5002869;28;20103;-68
2022/11/10 10:56:04;;;;;;;27.77;7.28;;;;;;;14.70;100.00;97786.69;5022173;28;19924;-66
2022/11/10 10:58:33;;;;;;;9.55;6.20;;;;;;;15.18;99.58;97797.31;5022572;28;20047;-66
2022/11/10 11:01:23;;;;;;;9.30;6.75;;;;;;;15.80;95.40;97797.84;5042302;28;20048;-66
2022/11/10 11:03:50;;;;;;;31.63;7.70;;;;;;;16.53;88.66;97797.53;5027967;28;20074;-66
2022/11/10 11:06:16;;;;;;;24.08;8.38;;;;;;;16.07;89.78;97802.53;5037800;28;20051;-66
2022/11/10 11:08:57;;;;;;;20.73;6.78;;;;;;;15.52;94.47;97803.75;5043097;28;20330;-66
2022/11/10 11:11:31;;;;;;;14.25;7.18;;;;;;;15.54;95.05;97800.59;5039084;28;20065;-66
2022/11/10 11:14:23;;;;;;;13.57;6.53;;;;;;;15.36;94.91;97803.91;5041124;28;20047;-66
2022/11/10 11:17:00;;;;;;;14.40;6.25;;;;;;;15.07;95.85;97808.16;5040408;28;20238;-66
2022/11/10 11:19:36;;;;;;;11.38;6.35;;;;;;;15.09;96.85;97803.88;5036172;28;20041;-67
2022/11/10 11:22:22;;;;;;;12.52;5.97;;;;;;;15.75;92.73;97809.22;5038553;28;20417;-66
2022/11/10 11:25:09;;;;;;;7.72;5.15;;;;;;;16.22;89.78;97805.09;5040548;28;20048;-67
2022/11/10 11:27:52;;;;;;;11.73;5.35;;;;;;;15.82;91.22;97789.97;5020129;28;20441;-67
2022/11/10 11:30:27;;;;;;;14.20;5.30;;;;;;;16.97;84.60;97793.22;5033319;28;20602;-66
2022/11/10 11:33:21;;;;;;;15.00;5.22;;;;;;;17.33;81.98;97790.72;5039701;28;20048;-66
2022/11/10 11:36:13;;;;;;;7.07;4.35;;;;;;;18.26;75.91;97791.25;5041414;28;20036;-67
2022/11/10 11:38:39;;;;;;;17.13;3.80;;;;;;;18.56;69.57;97797.66;5037052;28;20040;-67
2022/11/10 11:41:10;;;;;;;8.40;3.70;;;;;;;18.40;74.33;97790.50;5034920;28;20048;-67
2022/11/10 11:43:35;;;;;;;9.75;3.92;;;;;;;19.22;67.36;97789.03;5038166;28;20045;-66